createdAt,value
2018-08-22T00:00:18.631Z,101133.93
2018-08-22T00:02:47.150Z,101134.39
2018-08-22T00:05:15.595Z,101134.50
2018-08-22T00:07:45.274Z,101130.76
2018-08-22T00:10:13.801Z,101130.56
2018-08-22T00:12:42.293Z,101134.33
2018-08-22T00:15:12.575Z,101130.51
2018-08-22T00:17:41.169Z,101135.53
2018-08-22T00:20:10.895Z,101138.20
2018-08-22T00:22:39.640Z,101137.73
2018-08-22T00:25:08.732Z,101136.86
2018-08-22T00:27:37.287Z,101136.59
2018-08-22T00:30:06.522Z,101130.84
2018-08-22T00:32:35.249Z,101133.23
2018-08-22T00:35:04.254Z,101128.47
2018-08-22T00:37:33.112Z,101132.16
2018-08-22T00:40:01.668Z,101129.67
2018-08-22T00:42:30.924Z,101128.09
2018-08-22T00:44:59.520Z,101130.48
2018-08-22T00:47:35.353Z,101124.08
2018-08-22T00:50:05.191Z,101128.53
2018-08-22T00:52:33.873Z,101123.38
2018-08-22T00:55:02.582Z,101120.90
2018-08-22T00:57:31.627Z,101121.53
2018-08-22T01:00:00.545Z,101120.84
2018-08-22T01:02:29.213Z,101117.38
2018-08-22T01:04:58.013Z,101117.83
2018-08-22T01:07:26.681Z,101120.49
2018-08-22T01:09:55.255Z,101119.65
2018-08-22T01:12:24.608Z,101118.32
2018-08-22T01:14:53.120Z,101117.55
2018-08-22T01:17:21.772Z,101114.58
2018-08-22T01:19:50.290Z,101110.83
2018-08-22T01:22:19.589Z,101106.06
2018-08-22T01:24:48.071Z,101106.13
2018-08-22T01:27:21.842Z,101105.36
2018-08-22T01:29:52.006Z,101100.59
2018-08-22T01:32:21.048Z,101103.89
2018-08-22T01:34:49.905Z,101098.74
2018-08-22T01:37:18.533Z,101099.83
2018-08-22T01:39:47.941Z,101095.06
2018-08-22T01:42:16.740Z,101095.70
2018-08-22T01:44:45.896Z,101097.59
2018-08-22T01:47:14.941Z,101091.98
2018-08-22T01:49:43.600Z,101094.33
2018-08-22T01:52:12.397Z,101092.30
2018-08-22T01:54:41.076Z,101092.37
2018-08-22T01:57:09.619Z,101090.66
2018-08-22T01:59:38.115Z,101085.98
2018-08-22T02:02:06.921Z,101093.17
2018-08-22T02:04:35.561Z,101082.69
2018-08-22T02:07:04.385Z,101085.91
2018-08-22T02:09:32.897Z,101086.93
2018-08-22T02:12:01.345Z,101084.44
2018-08-22T02:14:29.992Z,101082.72
2018-08-22T02:16:59.398Z,101081.56
2018-08-22T02:19:28.776Z,101082.19
2018-08-22T02:21:57.213Z,101076.55
2018-08-22T02:24:25.789Z,101080.61
2018-08-22T02:26:55.426Z,101075.39
2018-08-22T02:29:23.858Z,101074.66
2018-08-22T02:31:52.563Z,101069.89
2018-08-22T02:34:21.143Z,101079.38
2018-08-22T02:36:49.592Z,101076.84
2018-08-22T02:39:18.137Z,101074.84
2018-08-22T02:41:46.748Z,101070.92
2018-08-22T02:44:15.385Z,101068.33
2018-08-22T02:46:43.946Z,101066.22
2018-08-22T02:49:14.432Z,101072.03
2018-08-22T02:51:43.324Z,101077.87
2018-08-22T02:54:11.959Z,101073.11
2018-08-22T02:56:40.662Z,101072.72
2018-08-22T02:59:09.592Z,101078.11
2018-08-22T03:01:38.452Z,101074.12
2018-08-22T03:04:07.112Z,101068.90
2018-08-22T03:06:35.957Z,101070.61
2018-08-22T03:09:06.142Z,101068.90
2018-08-22T03:11:36.410Z,101071.07
2018-08-22T03:14:05.169Z,101074.05
2018-08-22T03:16:34.136Z,101071.78
2018-08-22T03:19:02.623Z,101072.55
2018-08-22T03:21:31.352Z,101074.83
2018-08-22T03:24:00.039Z,101074.37
2018-08-22T03:26:28.669Z,101065.13
2018-08-22T03:28:57.513Z,101064.28
2018-08-22T03:31:26.149Z,101068.73
2018-08-22T03:33:54.749Z,101058.97
2018-08-22T03:36:23.397Z,101063.41
2018-08-22T03:38:51.888Z,101063.41
2018-08-22T03:41:20.575Z,101061.63
2018-08-22T03:43:49.441Z,101060.36
2018-08-22T03:46:18.341Z,101061.69
2018-08-22T03:48:46.858Z,101067.89
2018-08-22T03:51:15.626Z,101064.81
2018-08-22T03:53:44.178Z,101061.30
2018-08-22T03:56:12.655Z,101071.07
2018-08-22T03:58:42.217Z,101063.64
2018-08-22T04:01:10.893Z,101059.27
2018-08-22T04:03:39.412Z,101064.69
2018-08-22T04:06:08.360Z,101066.54
2018-08-22T04:08:37.512Z,101064.44
2018-08-22T04:11:06.264Z,101068.98
2018-08-22T04:13:34.867Z,101066.94
2018-08-22T04:16:03.697Z,101067.42
2018-08-22T04:18:32.500Z,101063.11
2018-08-22T04:21:01.445Z,101058.91
2018-08-22T04:23:30.582Z,101060.75
2018-08-22T04:25:59.389Z,101058.26
2018-08-22T04:28:34.970Z,101057.48
2018-08-22T04:31:03.883Z,101055.83
2018-08-22T04:33:32.732Z,101061.25
2018-08-22T04:36:02.447Z,101059.98
2018-08-22T04:38:31.242Z,101062.70
2018-08-22T04:41:00.660Z,101057.10
2018-08-22T04:43:29.566Z,101058.49
2018-08-22T04:45:58.616Z,101059.05
2018-08-22T04:48:28.440Z,101060.44
2018-08-22T04:50:59.130Z,101059.59
2018-08-22T04:53:33.123Z,101062.32
2018-08-22T04:56:02.556Z,101054.34
2018-08-22T04:58:31.172Z,101058.39
2018-08-22T05:01:00.168Z,101052.95
2018-08-22T05:03:29.566Z,101057.48
2018-08-22T05:05:58.376Z,101061.15
2018-08-22T05:08:27.162Z,101062.73
2018-08-22T05:10:56.101Z,101059.14
2018-08-22T05:13:24.910Z,101058.52
2018-08-22T05:15:53.712Z,101057.09
2018-08-22T05:18:22.873Z,101065.29
2018-08-22T05:20:51.639Z,101060.29
2018-08-22T05:23:20.845Z,101061.45
2018-08-22T05:25:49.466Z,101064.82
2018-08-22T05:28:24.762Z,101065.08
2018-08-22T05:30:53.573Z,101064.97
2018-08-22T05:33:22.595Z,101056.54
2018-08-22T05:35:51.572Z,101065.30
2018-08-22T05:38:20.304Z,101065.61
2018-08-22T05:40:49.211Z,101070.45
2018-08-22T05:43:19.055Z,101070.70
2018-08-22T05:45:47.714Z,101071.86
2018-08-22T05:48:17.198Z,101067.77
2018-08-22T05:50:46.170Z,101066.38
2018-08-22T05:53:15.091Z,101072.19
2018-08-22T05:55:44.023Z,101066.86
2018-08-22T05:58:12.716Z,101068.58
2018-08-22T06:00:41.823Z,101072.47
2018-08-22T06:03:11.414Z,101072.78
2018-08-22T06:05:40.064Z,101071.07
2018-08-22T06:08:09.565Z,101071.91
2018-08-22T06:10:38.174Z,101065.75
2018-08-22T06:13:07.754Z,101065.64
2018-08-22T06:15:36.906Z,101066.34
2018-08-22T06:18:05.779Z,101059.07
2018-08-22T06:20:34.507Z,101057.53
2018-08-22T06:23:03.274Z,101067.17
2018-08-22T06:25:32.147Z,101067.55
2018-08-22T06:28:00.718Z,101072.14
2018-08-22T06:30:29.978Z,101067.20
2018-08-22T06:32:58.757Z,101066.58
2018-08-22T06:35:27.587Z,101069.17
2018-08-22T06:37:56.332Z,101067.67
2018-08-22T06:40:26.117Z,101068.13
2018-08-22T06:42:54.970Z,101065.59
2018-08-22T06:45:23.841Z,101062.94
2018-08-22T06:47:52.776Z,101071.31
2018-08-22T06:50:21.511Z,101069.73
2018-08-22T06:55:26.984Z,101070.81
2018-08-22T07:00:23.895Z,101066.78
2018-08-22T07:02:52.605Z,101065.45
2018-08-22T07:05:21.802Z,101064.25
2018-08-22T07:07:50.539Z,101065.16
2018-08-22T07:10:19.096Z,101059.31
2018-08-22T07:12:48.551Z,101061.65
2018-08-22T07:15:17.888Z,101061.32
2018-08-22T07:17:46.640Z,101059.31
2018-08-22T07:20:15.271Z,101064.39
2018-08-22T07:22:43.961Z,101066.52
2018-08-22T07:25:12.621Z,101060.81
2018-08-22T07:27:41.559Z,101057.97
2018-08-22T07:30:10.696Z,101062.66
2018-08-22T07:32:40.096Z,101058.47
2018-08-22T07:35:08.831Z,101056.69
2018-08-22T07:37:37.549Z,101052.42
2018-08-22T07:40:07.054Z,101059.59
2018-08-22T07:42:35.777Z,101062.87
2018-08-22T07:45:05.047Z,101059.63
2018-08-22T07:47:33.922Z,101060.89
2018-08-22T07:50:05.976Z,101060.77
2018-08-22T07:52:35.218Z,101059.09
2018-08-22T07:55:04.060Z,101066.67
2018-08-22T07:57:32.794Z,101057.06
2018-08-22T08:00:01.597Z,101060.41
2018-08-22T08:02:31.220Z,101056.30
2018-08-22T08:05:00.237Z,101059.45
2018-08-22T08:07:29.759Z,101061.77
2018-08-22T08:09:58.580Z,101069.20
2018-08-22T08:12:32.259Z,101064.55
2018-08-22T08:15:04.018Z,101063.31
2018-08-22T08:17:33.185Z,101071.42
2018-08-22T08:20:02.826Z,101072.95
2018-08-22T08:22:32.313Z,101079.42
2018-08-22T08:25:01.210Z,101067.70
2018-08-22T08:27:30.732Z,101066.47
2018-08-22T08:30:01.090Z,101070.49
2018-08-22T08:32:30.442Z,101073.43
2018-08-22T08:34:59.297Z,101071.13
2018-08-22T08:37:28.251Z,101071.93
2018-08-22T08:39:58.110Z,101069.72
2018-08-22T08:42:27.525Z,101070.23
2018-08-22T08:44:56.843Z,101064.78
2018-08-22T08:47:26.799Z,101063.83
2018-08-22T08:49:56.018Z,101058.00
2018-08-22T08:52:25.080Z,101067.93
2018-08-22T08:54:54.192Z,101064.47
2018-08-22T08:57:23.124Z,101057.87
2018-08-22T08:59:52.115Z,101059.09
2018-08-22T09:02:20.990Z,101063.56
2018-08-22T09:04:50.135Z,101055.91
2018-08-22T09:07:18.725Z,101057.53
2018-08-22T09:09:47.767Z,101054.93
2018-08-22T09:12:16.550Z,101051.95
2018-08-22T09:14:45.558Z,101049.48
2018-08-22T09:17:14.409Z,101052.98
2018-08-22T09:19:43.445Z,101054.27
2018-08-22T09:22:12.169Z,101048.02
2018-08-22T09:24:42.193Z,101046.66
2018-08-22T09:27:11.351Z,101043.46
2018-08-22T09:29:41.104Z,101040.76
2018-08-22T09:32:09.792Z,101040.14
2018-08-22T09:34:39.028Z,101035.88
2018-08-22T09:37:07.936Z,101032.84
2018-08-22T09:39:36.707Z,101031.61
2018-08-22T09:42:05.694Z,101033.47
2018-08-22T09:44:34.904Z,101030.00
2018-08-22T09:47:05.421Z,101031.03
2018-08-22T09:49:35.499Z,101024.09
2018-08-22T09:52:05.080Z,101028.06
2018-08-22T09:54:38.995Z,101019.61
2018-08-22T09:57:08.806Z,101017.65
2018-08-22T09:59:37.640Z,101016.37
2018-08-22T10:02:07.111Z,101015.34
2018-08-22T10:04:36.360Z,101016.78
2018-08-22T10:07:05.518Z,101022.04
2018-08-22T10:09:34.962Z,101018.44
2018-08-22T10:12:04.303Z,101013.28
2018-08-22T10:14:33.939Z,101014.77
2018-08-22T10:17:02.713Z,101019.45
2018-08-22T10:19:32.148Z,101004.75
2018-08-22T10:22:01.160Z,101012.34
2018-08-22T10:24:30.153Z,101011.52
2018-08-22T10:26:59.109Z,101002.70
2018-08-22T10:29:28.033Z,101003.69
2018-08-22T10:31:57.024Z,101008.97
2018-08-22T10:34:26.641Z,100997.13
2018-08-22T10:36:56.136Z,101000.30
2018-08-22T10:39:24.730Z,101003.27
2018-08-22T10:41:53.408Z,100995.79
2018-08-22T10:44:22.780Z,101002.75
2018-08-22T10:46:52.280Z,100988.84
2018-08-22T10:49:20.964Z,100987.48
2018-08-22T10:51:49.947Z,100983.30
2018-08-22T10:54:18.988Z,100982.19
2018-08-22T10:56:47.996Z,100982.52
2018-08-22T10:59:17.409Z,100983.17
2018-08-22T11:01:46.245Z,100985.22
2018-08-22T11:04:15.205Z,100983.16
2018-08-22T11:06:44.014Z,100980.05
2018-08-22T11:09:12.849Z,100978.91
2018-08-22T11:11:41.731Z,100971.95
2018-08-22T11:14:10.693Z,100969.73
2018-08-22T11:16:40.038Z,100975.20
2018-08-22T11:19:08.976Z,100977.89
2018-08-22T11:21:49.069Z,100979.55
2018-08-22T11:44:19.226Z,100967.66
2018-08-22T11:46:48.132Z,100965.01
2018-08-22T11:49:16.802Z,100972.13
2018-08-22T11:51:45.542Z,100972.89
2018-08-22T11:54:14.346Z,100968.28
2018-08-22T11:56:43.223Z,100974.83
2018-08-22T11:59:12.267Z,100964.98
2018-08-22T12:01:40.939Z,100956.09
2018-08-22T12:04:10.127Z,100961.68
2018-08-22T12:06:40.207Z,100953.30
2018-08-22T12:09:11.015Z,100955.36
2018-08-22T12:11:40.072Z,100954.99
2018-08-22T12:14:09.402Z,100962.68
2018-08-22T12:16:39.794Z,100957.06
2018-08-22T12:19:09.012Z,100959.45
2018-08-22T12:21:38.338Z,100958.50
2018-08-22T12:24:07.528Z,100955.73
2018-08-22T12:26:36.366Z,100944.17
2018-08-22T12:29:05.520Z,100940.86
2018-08-22T12:31:34.771Z,100944.46
2018-08-22T12:34:03.519Z,100944.11
2018-08-22T12:36:32.622Z,100941.79
2018-08-22T12:39:01.446Z,100941.45
2018-08-22T12:41:30.292Z,100940.86
2018-08-22T12:43:59.300Z,100947.47
2018-08-22T12:46:28.715Z,100933.33
2018-08-22T12:48:57.533Z,100934.36
2018-08-22T12:51:26.501Z,100939.63
2018-08-22T12:53:55.375Z,100939.95
2018-08-22T12:56:25.238Z,100934.45
2018-08-22T12:58:54.211Z,100931.33
2018-08-22T13:01:22.830Z,100933.98
2018-08-22T13:03:52.060Z,100932.08
2018-08-22T13:06:20.915Z,100933.39
2018-08-22T13:08:49.907Z,100932.30
2018-08-22T13:11:18.628Z,100929.52
2018-08-22T13:13:47.490Z,100923.61
2018-08-22T13:16:16.319Z,100930.47
2018-08-22T13:18:45.171Z,100923.28
2018-08-22T13:21:14.127Z,100927.92
2018-08-22T13:23:50.023Z,100916.87
2018-08-22T13:26:18.997Z,100921.27
2018-08-22T13:28:48.973Z,100917.31
2018-08-22T13:31:18.446Z,100916.14
2018-08-22T13:33:47.205Z,100918.93
2018-08-22T13:36:16.513Z,100917.00
2018-08-22T13:38:45.492Z,100913.95
2018-08-22T13:41:14.440Z,100911.44
2018-08-22T13:43:43.611Z,100913.11
2018-08-22T13:46:12.548Z,100905.29
2018-08-22T13:48:41.643Z,100909.09
2018-08-22T13:51:10.218Z,100892.42
2018-08-22T13:53:39.287Z,100897.95
2018-08-22T13:56:08.080Z,100900.35
2018-08-22T13:58:37.025Z,100898.51
2018-08-22T14:01:06.617Z,100894.48
2018-08-22T14:03:35.305Z,100895.70
2018-08-22T14:06:04.916Z,100901.11
2018-08-22T14:08:33.798Z,100894.09
2018-08-22T14:11:02.849Z,100893.38
2018-08-22T14:13:32.337Z,100896.50
2018-08-22T14:16:01.218Z,100900.23
2018-08-22T14:18:30.079Z,100898.05
2018-08-22T14:20:58.828Z,100885.20
2018-08-22T14:23:27.447Z,100884.66
2018-08-22T14:25:56.214Z,100884.70
2018-08-22T14:28:25.169Z,100890.95
2018-08-22T14:30:53.897Z,100891.91
2018-08-22T14:33:22.530Z,100886.84
2018-08-22T14:35:51.376Z,100895.72
2018-08-22T14:38:21.089Z,100891.28
2018-08-22T14:40:49.722Z,100892.98
2018-08-22T14:43:18.894Z,100893.20
2018-08-22T14:45:48.343Z,100891.08
2018-08-22T14:48:17.061Z,100893.66
2018-08-22T14:50:46.152Z,100890.84
2018-08-22T14:53:15.113Z,100888.62
2018-08-22T14:55:44.353Z,100884.77
2018-08-22T14:58:13.325Z,100884.70
2018-08-22T15:00:41.934Z,100885.59
2018-08-22T15:03:11.420Z,100883.87
2018-08-22T15:05:39.908Z,100885.73
2018-08-22T15:08:08.591Z,100886.12
2018-08-22T15:10:37.305Z,100881.02
2018-08-22T15:13:06.437Z,100877.94
2018-08-22T15:15:35.510Z,100871.27
2018-08-22T15:18:04.322Z,100873.45
2018-08-22T15:20:33.048Z,100864.17
2018-08-22T15:23:01.617Z,100864.00
2018-08-22T15:25:30.574Z,100863.30
2018-08-22T15:27:59.153Z,100856.91
2018-08-22T15:30:27.807Z,100864.75
2018-08-22T15:32:56.670Z,100860.72
2018-08-22T15:35:25.660Z,100858.67
2018-08-22T15:37:55.532Z,100862.07
2018-08-22T15:40:25.029Z,100860.26
2018-08-22T15:42:53.795Z,100855.28
2018-08-22T15:45:22.537Z,100857.87
2018-08-22T15:47:51.969Z,100853.20
2018-08-22T15:50:20.775Z,100859.94
2018-08-22T15:52:49.877Z,100860.05
2018-08-22T15:55:19.034Z,100857.34
2018-08-22T15:58:01.068Z,100853.11
2018-08-22T16:00:33.321Z,100857.92
2018-08-22T16:03:03.471Z,100846.73
2018-08-22T16:05:32.965Z,100845.62
2018-08-22T16:08:01.651Z,100843.98
2018-08-22T16:10:30.868Z,100846.80
2018-08-22T16:13:00.403Z,100840.31
2018-08-22T16:15:32.759Z,100836.98
2018-08-22T16:18:04.937Z,100836.02
2018-08-22T16:20:36.025Z,100839.77
2018-08-22T16:23:04.650Z,100837.78
2018-08-22T16:25:40.382Z,100827.88
2018-08-22T16:28:09.113Z,100829.52
2018-08-22T16:30:37.770Z,100827.77
2018-08-22T16:33:06.363Z,100826.64
2018-08-22T16:35:35.384Z,100828.67
2018-08-22T16:38:07.128Z,100840.30
2018-08-22T16:40:37.607Z,100830.05
2018-08-22T16:43:07.045Z,100833.27
2018-08-22T16:45:44.199Z,100828.22
2018-08-22T16:48:15.834Z,100833.98
2018-08-22T16:50:44.794Z,100830.52
2018-08-22T16:53:18.881Z,100828.00
2018-08-22T16:55:48.855Z,100820.20
2018-08-22T16:58:18.245Z,100820.58
2018-08-22T17:00:47.934Z,100816.66
2018-08-22T17:03:16.747Z,100819.92
2018-08-22T17:05:45.508Z,100817.00
2018-08-22T17:08:14.851Z,100819.62
2018-08-22T17:10:59.860Z,100818.25
2018-08-22T17:13:36.468Z,100818.19
2018-08-22T17:16:05.460Z,100815.25
2018-08-22T17:18:34.300Z,100811.97
2018-08-22T17:21:04.029Z,100820.80
2018-08-22T17:23:32.971Z,100819.27
2018-08-22T17:26:01.789Z,100823.94
2018-08-22T17:28:35.621Z,100822.37
2018-08-22T17:31:04.717Z,100825.84
2018-08-22T17:33:39.409Z,100831.23
2018-08-22T17:36:09.305Z,100828.11
2018-08-22T17:38:38.505Z,100829.92
2018-08-22T17:41:07.727Z,100827.45
2018-08-22T17:43:52.965Z,100829.09
2018-08-22T17:46:23.222Z,100828.13
2018-08-22T17:48:51.930Z,100832.02
2018-08-22T17:51:20.682Z,100826.42
2018-08-22T17:53:50.214Z,100830.94
2018-08-22T17:56:22.091Z,100833.65
2018-08-22T17:58:52.346Z,100833.89
2018-08-22T18:01:24.166Z,100834.20
2018-08-22T18:03:56.133Z,100832.39
2018-08-22T18:06:24.941Z,100838.52
2018-08-22T18:08:54.166Z,100839.04
2018-08-22T18:11:25.754Z,100830.13
2018-08-22T18:13:57.246Z,100833.94
2018-08-22T18:16:25.796Z,100838.22
2018-08-22T18:18:54.794Z,100835.17
2018-08-22T18:21:24.619Z,100843.45
2018-08-22T18:23:56.740Z,100840.67
2018-08-22T18:26:26.152Z,100846.06
2018-08-22T18:28:55.703Z,100838.27
2018-08-22T18:31:30.981Z,100839.84
2018-08-22T18:34:06.444Z,100846.08
2018-08-22T18:36:35.412Z,100855.73
2018-08-22T18:39:11.499Z,100855.95
2018-08-22T18:41:40.672Z,100855.59
2018-08-22T18:44:09.474Z,100866.70
2018-08-22T18:46:38.844Z,100871.70
2018-08-22T18:49:08.303Z,100868.91
2018-08-22T18:51:37.284Z,100870.69
2018-08-22T18:54:06.074Z,100876.91
2018-08-22T18:56:34.940Z,100874.95
2018-08-22T18:59:37.472Z,100877.52
2018-08-22T19:02:09.312Z,100880.55
2018-08-22T19:04:38.938Z,100883.48
2018-08-22T19:07:11.918Z,100884.56
2018-08-22T19:09:40.890Z,100885.42
2018-08-22T19:12:10.242Z,100888.31
2018-08-22T19:14:45.393Z,100888.66
2018-08-22T19:17:16.195Z,100890.97
2018-08-22T19:19:47.324Z,100893.27
2018-08-22T19:22:17.545Z,100894.19
2018-08-22T19:25:02.907Z,100898.19
2018-08-22T19:27:32.888Z,100898.30
2018-08-22T19:30:02.720Z,100898.01
2018-08-22T19:32:31.795Z,100898.22
2018-08-22T19:35:00.493Z,100903.78
2018-08-22T19:37:29.437Z,100905.20
2018-08-22T19:40:07.753Z,100900.04
2018-08-22T19:42:37.932Z,100899.41
2018-08-22T19:45:14.201Z,100896.72
2018-08-22T19:47:43.632Z,100908.78
2018-08-22T19:50:13.611Z,100906.80
2018-08-22T19:52:42.589Z,100901.00
2018-08-22T19:55:11.341Z,100906.66
2018-08-22T19:57:41.885Z,100904.13
2018-08-22T20:00:12.011Z,100911.42
2018-08-22T20:02:40.757Z,100916.31
2018-08-22T20:05:10.676Z,100917.65
2018-08-22T20:07:39.852Z,100920.55
2018-08-22T20:10:09.449Z,100919.45
2018-08-22T20:12:45.352Z,100918.80
2018-08-22T20:15:14.353Z,100919.89
2018-08-22T20:17:48.052Z,100917.78
2018-08-22T20:20:17.068Z,100918.81
2018-08-22T20:22:47.358Z,100924.64
2018-08-22T20:25:16.336Z,100920.98
2018-08-22T20:27:45.012Z,100926.45
2018-08-22T20:30:18.228Z,100929.96
2018-08-22T20:32:59.782Z,100931.89
2018-08-22T20:35:35.907Z,100934.66
2018-08-22T20:38:08.740Z,100930.33
2018-08-22T20:40:41.514Z,100925.29
2018-08-22T20:43:17.507Z,100927.59
2018-08-22T20:45:47.324Z,100931.39
2018-08-22T20:48:19.180Z,100930.33
2018-08-22T20:50:49.074Z,100927.16
2018-08-22T20:53:19.046Z,100933.01
2018-08-22T20:55:48.322Z,100926.32
2018-08-22T20:58:31.738Z,100930.89
2018-08-22T21:01:01.417Z,100931.48
2018-08-22T21:03:30.586Z,100936.58
2018-08-22T21:05:59.409Z,100930.07
2018-08-22T21:10:56.767Z,100932.27
2018-08-22T21:13:28.025Z,100928.09
2018-08-22T21:15:57.596Z,100927.44
2018-08-22T21:18:26.514Z,100932.50
2018-08-22T21:21:00.087Z,100930.05
2018-08-22T21:23:29.210Z,100929.13
2018-08-22T21:25:58.535Z,100931.81
2018-08-22T21:28:32.745Z,100934.50
2018-08-22T21:31:06.998Z,100933.00
2018-08-22T21:33:36.038Z,100929.95
2018-08-22T21:36:04.741Z,100933.42
2018-08-22T21:38:33.666Z,100934.84
2018-08-22T21:41:02.600Z,100939.14
2018-08-22T21:43:31.626Z,100942.02
2018-08-22T21:46:00.822Z,100944.61
2018-08-22T21:48:30.329Z,100945.24
2018-08-22T21:51:05.596Z,100936.02
2018-08-22T21:53:34.151Z,100933.52
2018-08-22T21:56:02.679Z,100939.73
2018-08-22T21:58:31.942Z,100937.14
2018-08-22T22:01:00.946Z,100936.77
2018-08-22T22:03:32.733Z,100934.22
2018-08-22T22:06:05.804Z,100937.93
2018-08-22T22:08:35.053Z,100931.83
2018-08-22T22:11:07.156Z,100931.55
2018-08-22T22:13:35.760Z,100934.04
2018-08-22T22:16:05.563Z,100935.55
2018-08-22T22:18:40.401Z,100932.61
2018-08-22T22:21:13.200Z,100936.03
2018-08-22T22:23:44.753Z,100937.10
2018-08-22T22:26:14.868Z,100940.44
2018-08-22T22:28:43.548Z,100937.97
2018-08-22T22:31:14.100Z,100936.62
2018-08-22T22:33:47.560Z,100936.82
2018-08-22T22:36:17.097Z,100937.94
2018-08-22T22:38:45.624Z,100946.90
2018-08-22T22:41:14.190Z,100943.47
2018-08-22T22:43:42.711Z,100948.05
2018-08-22T22:46:11.880Z,100945.09
2018-08-22T22:48:41.867Z,100952.98
2018-08-22T22:51:11.035Z,100939.33
2018-08-22T22:53:39.822Z,100943.03
2018-08-22T22:56:08.615Z,100938.66
2018-08-22T22:58:37.745Z,100933.52
2018-08-22T23:01:07.232Z,100940.38
2018-08-22T23:03:37.041Z,100936.16
2018-08-22T23:06:05.704Z,100935.89
2018-08-22T23:08:35.473Z,100936.62
2018-08-22T23:11:03.986Z,100936.95
2018-08-22T23:13:32.506Z,100936.45
2018-08-22T23:16:01.513Z,100929.98
2018-08-22T23:18:30.280Z,100926.86
2018-08-22T23:21:00.184Z,100929.33
2018-08-22T23:23:37.055Z,100934.36
2018-08-22T23:26:13.640Z,100933.90
2018-08-22T23:28:48.824Z,100933.90
2018-08-22T23:31:19.900Z,100925.91
2018-08-22T23:33:48.756Z,100932.07
2018-08-22T23:36:17.382Z,100930.47
2018-08-22T23:38:48.523Z,100924.73
2018-08-22T23:41:19.962Z,100930.05
2018-08-22T23:43:51.622Z,100927.01
2018-08-22T23:46:20.229Z,100925.41
2018-08-22T23:48:56.076Z,100922.81
2018-08-22T23:51:24.834Z,100923.96
2018-08-22T23:53:57.095Z,100923.20
2018-08-22T23:56:28.740Z,100921.53
2018-08-22T23:58:58.553Z,100913.61
